sensor_id;sensor_type;location;lat;lon;timestamp;P1;durP1;ratioP1;P2;durP2;ratioP2
53765;SDS011;39682;51.490;7.310;2023-02-28T00:02:18;6.47;;;2.65;;
53765;SDS011;39682;51.490;7.310;2023-02-28T00:04:44;5.97;;;3.28;;
53765;SDS011;39682;51.490;7.310;2023-02-28T00:07:11;5.18;;;2.38;;
53765;SDS011;39682;51.490;7.310;2023-02-28T00:09:37;2.92;;;2.10;;
53765;SDS011;39682;51.490;7.310;2023-02-28T00:12:03;3.97;;;2.15;;
53765;SDS011;39682;51.490;7.310;2023-02-28T00:14:35;5.53;;;2.15;;
53765;SDS011;39682;51.490;7.310;2023-02-28T00:17:00;4.57;;;2.03;;
53765;SDS011;39682;51.490;7.310;2023-02-28T00:19:26;3.67;;;2.35;;
53765;SDS011;39682;51.490;7.310;2023-02-28T00:21:52;5.75;;;2.53;;
53765;SDS011;39682;51.490;7.310;2023-02-28T00:24:18;4.00;;;2.22;;
53765;SDS011;39682;51.490;7.310;2023-02-28T00:26:44;8.02;;;2.13;;
53765;SDS011;39682;51.490;7.310;2023-02-28T00:29:10;5.30;;;3.00;;
53765;SDS011;39682;51.490;7.310;2023-02-28T00:31:36;6.13;;;2.50;;
53765;SDS011;39682;51.490;7.310;2023-02-28T00:34:02;5.70;;;2.53;;
53765;SDS011;39682;51.490;7.310;2023-02-28T00:36:28;4.20;;;2.45;;
53765;SDS011;39682;51.490;7.310;2023-02-28T00:38:54;6.75;;;2.08;;
53765;SDS011;39682;51.490;7.310;2023-02-28T00:41:20;9.73;;;2.53;;
53765;SDS011;39682;51.490;7.310;2023-02-28T00:43:46;7.07;;;2.78;;
53765;SDS011;39682;51.490;7.310;2023-02-28T00:46:12;3.10;;;2.13;;
53765;SDS011;39682;51.490;7.310;2023-02-28T00:48:38;7.05;;;2.25;;
53765;SDS011;39682;51.490;7.310;2023-02-28T00:51:04;3.78;;;1.90;;
53765;SDS011;39682;51.490;7.310;2023-02-28T00:53:30;4.10;;;2.10;;
53765;SDS011;39682;51.490;7.310;2023-02-28T00:55:57;4.30;;;2.05;;
53765;SDS011;39682;51.490;7.310;2023-02-28T00:58:23;4.18;;;1.90;;
53765;SDS011;39682;51.490;7.310;2023-02-28T01:00:50;6.93;;;1.98;;
53765;SDS011;39682;51.490;7.310;2023-02-28T01:03:17;4.05;;;1.65;;
53765;SDS011;39682;51.490;7.310;2023-02-28T01:05:43;5.32;;;2.00;;
53765;SDS011;39682;51.490;7.310;2023-02-28T01:08:09;5.30;;;2.42;;
53765;SDS011;39682;51.490;7.310;2023-02-28T01:10:35;4.57;;;1.95;;
53765;SDS011;39682;51.490;7.310;2023-02-28T01:13:01;5.85;;;1.65;;
53765;SDS011;39682;51.490;7.310;2023-02-28T01:15:28;3.25;;;2.13;;
53765;SDS011;39682;51.490;7.310;2023-02-28T01:17:54;4.53;;;1.85;;
53765;SDS011;39682;51.490;7.310;2023-02-28T01:20:20;6.18;;;2.15;;
53765;SDS011;39682;51.490;7.310;2023-02-28T01:22:46;3.53;;;1.70;;
53765;SDS011;39682;51.490;7.310;2023-02-28T01:25:12;6.55;;;1.90;;
53765;SDS011;39682;51.490;7.310;2023-02-28T01:27:38;3.58;;;1.80;;
53765;SDS011;39682;51.490;7.310;2023-02-28T01:30:05;4.93;;;2.47;;
53765;SDS011;39682;51.490;7.310;2023-02-28T01:32:31;5.88;;;2.03;;
53765;SDS011;39682;51.490;7.310;2023-02-28T01:34:57;4.40;;;2.10;;
53765;SDS011;39682;51.490;7.310;2023-02-28T01:37:22;3.17;;;1.67;;
53765;SDS011;39682;51.490;7.310;2023-02-28T01:39:48;5.88;;;2.08;;
53765;SDS011;39682;51.490;7.310;2023-02-28T01:42:14;3.83;;;1.83;;
53765;SDS011;39682;51.490;7.310;2023-02-28T01:47:27;3.47;;;1.77;;
53765;SDS011;39682;51.490;7.310;2023-02-28T01:49:53;3.72;;;1.60;;
53765;SDS011;39682;51.490;7.310;2023-02-28T01:52:19;3.83;;;2.20;;
53765;SDS011;39682;51.490;7.310;2023-02-28T01:54:46;4.72;;;2.08;;
53765;SDS011;39682;51.490;7.310;2023-02-28T01:57:14;3.78;;;1.60;;
53765;SDS011;39682;51.490;7.310;2023-02-28T01:59:43;4.30;;;2.10;;
53765;SDS011;39682;51.490;7.310;2023-02-28T02:02:17;6.35;;;2.35;;
53765;SDS011;39682;51.490;7.310;2023-02-28T02:04:50;4.85;;;2.40;;
53765;SDS011;39682;51.490;7.310;2023-02-28T02:07:17;5.78;;;2.03;;
53765;SDS011;39682;51.490;7.310;2023-02-28T02:09:43;3.67;;;2.03;;
53765;SDS011;39682;51.490;7.310;2023-02-28T02:12:17;4.72;;;2.42;;
53765;SDS011;39682;51.490;7.310;2023-02-28T02:15:07;4.22;;;1.90;;
53765;SDS011;39682;51.490;7.310;2023-02-28T02:17:41;4.70;;;1.67;;
53765;SDS011;39682;51.490;7.310;2023-02-28T02:20:18;6.50;;;1.77;;
53765;SDS011;39682;51.490;7.310;2023-02-28T02:28:20;3.42;;;1.70;;
53765;SDS011;39682;51.490;7.310;2023-02-28T02:36:07;6.63;;;1.90;;
53765;SDS011;39682;51.490;7.310;2023-02-28T02:38:39;6.10;;;2.30;;
53765;SDS011;39682;51.490;7.310;2023-02-28T02:41:16;3.30;;;1.90;;
53765;SDS011;39682;51.490;7.310;2023-02-28T02:43:46;5.18;;;1.75;;
53765;SDS011;39682;51.490;7.310;2023-02-28T02:46:15;4.70;;;1.88;;
53765;SDS011;39682;51.490;7.310;2023-02-28T02:48:42;4.07;;;1.50;;
53765;SDS011;39682;51.490;7.310;2023-02-28T02:51:10;6.00;;;1.55;;
53765;SDS011;39682;51.490;7.310;2023-02-28T02:53:39;4.20;;;1.80;;
53765;SDS011;39682;51.490;7.310;2023-02-28T02:56:06;5.03;;;2.13;;
53765;SDS011;39682;51.490;7.310;2023-02-28T02:58:33;5.22;;;2.03;;
53765;SDS011;39682;51.490;7.310;2023-02-28T03:01:01;4.03;;;1.63;;
53765;SDS011;39682;51.490;7.310;2023-02-28T03:03:27;6.18;;;1.88;;
53765;SDS011;39682;51.490;7.310;2023-02-28T03:05:56;4.35;;;2.80;;
53765;SDS011;39682;51.490;7.310;2023-02-28T03:08:22;4.03;;;2.17;;
53765;SDS011;39682;51.490;7.310;2023-02-28T03:10:49;5.00;;;2.35;;
53765;SDS011;39682;51.490;7.310;2023-02-28T03:13:26;3.67;;;1.92;;
53765;SDS011;39682;51.490;7.310;2023-02-28T03:26:17;3.53;;;1.63;;
53765;SDS011;39682;51.490;7.310;2023-02-28T03:33:51;6.28;;;2.20;;
53765;SDS011;39682;51.490;7.310;2023-02-28T03:36:21;6.68;;;2.60;;
53765;SDS011;39682;51.490;7.310;2023-02-28T03:38:49;6.15;;;2.58;;
53765;SDS011;39682;51.490;7.310;2023-02-28T03:41:22;5.63;;;2.88;;
53765;SDS011;39682;51.490;7.310;2023-02-28T03:43:50;5.35;;;1.60;;
53765;SDS011;39682;51.490;7.310;2023-02-28T03:46:20;4.93;;;1.75;;
53765;SDS011;39682;51.490;7.310;2023-02-28T03:48:55;2.33;;;1.52;;
53765;SDS011;39682;51.490;7.310;2023-02-28T03:51:23;4.78;;;2.70;;
53765;SDS011;39682;51.490;7.310;2023-02-28T03:53:50;4.97;;;1.73;;
53765;SDS011;39682;51.490;7.310;2023-02-28T03:56:19;8.10;;;1.88;;
53765;SDS011;39682;51.490;7.310;2023-02-28T03:58:51;5.10;;;1.83;;
53765;SDS011;39682;51.490;7.310;2023-02-28T04:01:31;9.07;;;2.50;;
53765;SDS011;39682;51.490;7.310;2023-02-28T04:03:59;5.35;;;2.17;;
53765;SDS011;39682;51.490;7.310;2023-02-28T04:06:25;5.80;;;2.08;;
53765;SDS011;39682;51.490;7.310;2023-02-28T04:08:52;5.18;;;2.70;;
53765;SDS011;39682;51.490;7.310;2023-02-28T04:14:00;7.10;;;2.10;;
53765;SDS011;39682;51.490;7.310;2023-02-28T04:16:27;5.85;;;2.30;;
53765;SDS011;39682;51.490;7.310;2023-02-28T04:18:53;4.72;;;2.13;;
53765;SDS011;39682;51.490;7.310;2023-02-28T04:21:19;3.90;;;2.22;;
53765;SDS011;39682;51.490;7.310;2023-02-28T04:23:45;5.20;;;2.38;;
53765;SDS011;39682;51.490;7.310;2023-02-28T04:26:11;8.02;;;1.95;;
53765;SDS011;39682;51.490;7.310;2023-02-28T04:28:37;4.47;;;2.65;;
53765;SDS011;39682;51.490;7.310;2023-02-28T04:31:04;5.28;;;2.85;;
53765;SDS011;39682;51.490;7.310;2023-02-28T04:33:31;3.35;;;2.10;;
53765;SDS011;39682;51.490;7.310;2023-02-28T04:35:58;4.13;;;1.65;;
53765;SDS011;39682;51.490;7.310;2023-02-28T04:38:24;2.97;;;1.63;;
53765;SDS011;39682;51.490;7.310;2023-02-28T04:40:50;4.00;;;2.00;;
53765;SDS011;39682;51.490;7.310;2023-02-28T04:43:16;5.97;;;2.28;;
53765;SDS011;39682;51.490;7.310;2023-02-28T04:45:42;3.22;;;1.75;;
53765;SDS011;39682;51.490;7.310;2023-02-28T04:48:08;4.55;;;1.92;;
53765;SDS011;39682;51.490;7.310;2023-02-28T04:50:34;4.70;;;2.25;;
53765;SDS011;39682;51.490;7.310;2023-02-28T04:53:00;5.72;;;1.90;;
53765;SDS011;39682;51.490;7.310;2023-02-28T04:55:26;4.28;;;2.25;;
53765;SDS011;39682;51.490;7.310;2023-02-28T04:57:52;5.40;;;2.17;;
53765;SDS011;39682;51.490;7.310;2023-02-28T05:00:18;11.07;;;2.92;;
53765;SDS011;39682;51.490;7.310;2023-02-28T05:02:44;7.65;;;2.65;;
53765;SDS011;39682;51.490;7.310;2023-02-28T05:05:10;8.23;;;2.45;;
53765;SDS011;39682;51.490;7.310;2023-02-28T05:07:41;5.32;;;2.33;;
53765;SDS011;39682;51.490;7.310;2023-02-28T05:10:07;8.50;;;2.55;;
53765;SDS011;39682;51.490;7.310;2023-02-28T05:12:33;6.72;;;2.60;;
53765;SDS011;39682;51.490;7.310;2023-02-28T05:14:59;7.05;;;2.35;;
53765;SDS011;39682;51.490;7.310;2023-02-28T05:17:26;5.50;;;2.63;;
53765;SDS011;39682;51.490;7.310;2023-02-28T05:19:52;8.77;;;2.65;;
53765;SDS011;39682;51.490;7.310;2023-02-28T05:22:18;11.82;;;3.17;;
53765;SDS011;39682;51.490;7.310;2023-02-28T05:24:44;8.25;;;2.90;;
53765;SDS011;39682;51.490;7.310;2023-02-28T05:27:10;10.00;;;2.55;;
53765;SDS011;39682;51.490;7.310;2023-02-28T05:29:36;7.55;;;2.30;;
53765;SDS011;39682;51.490;7.310;2023-02-28T05:32:08;7.10;;;2.88;;
53765;SDS011;39682;51.490;7.310;2023-02-28T05:34:34;7.78;;;2.70;;
53765;SDS011;39682;51.490;7.310;2023-02-28T05:37:01;4.53;;;2.03;;
53765;SDS011;39682;51.490;7.310;2023-02-28T05:39:27;6.60;;;2.35;;
53765;SDS011;39682;51.490;7.310;2023-02-28T05:41:53;6.07;;;2.38;;
53765;SDS011;39682;51.490;7.310;2023-02-28T05:44:19;4.88;;;2.15;;
53765;SDS011;39682;51.490;7.310;2023-02-28T05:46:45;5.05;;;2.13;;
53765;SDS011;39682;51.490;7.310;2023-02-28T05:49:11;6.88;;;2.45;;
53765;SDS011;39682;51.490;7.310;2023-02-28T05:51:37;6.03;;;2.00;;
53765;SDS011;39682;51.490;7.310;2023-02-28T05:54:04;9.23;;;3.47;;
53765;SDS011;39682;51.490;7.310;2023-02-28T05:56:30;4.70;;;2.38;;
53765;SDS011;39682;51.490;7.310;2023-02-28T05:58:57;5.38;;;2.25;;
53765;SDS011;39682;51.490;7.310;2023-02-28T06:01:36;10.82;;;2.50;;
53765;SDS011;39682;51.490;7.310;2023-02-28T06:04:03;6.68;;;2.53;;
53765;SDS011;39682;51.490;7.310;2023-02-28T06:06:30;8.93;;;2.70;;
53765;SDS011;39682;51.490;7.310;2023-02-28T06:08:56;5.38;;;2.60;;
53765;SDS011;39682;51.490;7.310;2023-02-28T06:11:22;9.13;;;2.92;;
53765;SDS011;39682;51.490;7.310;2023-02-28T06:13:55;7.45;;;2.80;;
53765;SDS011;39682;51.490;7.310;2023-02-28T06:16:21;10.80;;;2.75;;
53765;SDS011;39682;51.490;7.310;2023-02-28T06:18:47;6.20;;;2.67;;
53765;SDS011;39682;51.490;7.310;2023-02-28T06:21:13;8.35;;;3.15;;
53765;SDS011;39682;51.490;7.310;2023-02-28T06:23:39;4.55;;;2.05;;
53765;SDS011;39682;51.490;7.310;2023-02-28T06:26:05;7.53;;;2.20;;
53765;SDS011;39682;51.490;7.310;2023-02-28T06:28:31;5.80;;;2.63;;
53765;SDS011;39682;51.490;7.310;2023-02-28T06:30:57;8.48;;;2.60;;
53765;SDS011;39682;51.490;7.310;2023-02-28T06:33:23;7.22;;;2.67;;
53765;SDS011;39682;51.490;7.310;2023-02-28T06:35:50;5.53;;;2.70;;
53765;SDS011;39682;51.490;7.310;2023-02-28T06:38:16;5.82;;;2.30;;
53765;SDS011;39682;51.490;7.310;2023-02-28T06:40:43;5.50;;;2.85;;
53765;SDS011;39682;51.490;7.310;2023-02-28T06:43:09;6.82;;;2.72;;
53765;SDS011;39682;51.490;7.310;2023-02-28T06:45:40;6.15;;;2.90;;
53765;SDS011;39682;51.490;7.310;2023-02-28T06:48:07;11.80;;;3.20;;
53765;SDS011;39682;51.490;7.310;2023-02-28T06:50:33;5.30;;;2.72;;
53765;SDS011;39682;51.490;7.310;2023-02-28T06:52:59;9.52;;;3.28;;
53765;SDS011;39682;51.490;7.310;2023-02-28T06:55:25;6.60;;;3.22;;
53765;SDS011;39682;51.490;7.310;2023-02-28T06:57:51;7.18;;;3.00;;
53765;SDS011;39682;51.490;7.310;2023-02-28T07:00:16;6.30;;;3.33;;
53765;SDS011;39682;51.490;7.310;2023-02-28T07:02:42;9.02;;;3.30;;
53765;SDS011;39682;51.490;7.310;2023-02-28T07:05:09;12.02;;;4.90;;
53765;SDS011;39682;51.490;7.310;2023-02-28T07:07:34;15.00;;;5.57;;
53765;SDS011;39682;51.490;7.310;2023-02-28T07:10:03;12.25;;;4.18;;
53765;SDS011;39682;51.490;7.310;2023-02-28T07:12:29;15.32;;;5.60;;
53765;SDS011;39682;51.490;7.310;2023-02-28T07:14:55;15.52;;;4.90;;
53765;SDS011;39682;51.490;7.310;2023-02-28T07:17:21;12.05;;;4.25;;
53765;SDS011;39682;51.490;7.310;2023-02-28T07:19:47;8.63;;;3.63;;
53765;SDS011;39682;51.490;7.310;2023-02-28T07:22:13;5.97;;;2.70;;
53765;SDS011;39682;51.490;7.310;2023-02-28T07:24:39;8.30;;;2.65;;
53765;SDS011;39682;51.490;7.310;2023-02-28T07:27:05;7.13;;;2.85;;
53765;SDS011;39682;51.490;7.310;2023-02-28T07:29:31;7.97;;;2.10;;
53765;SDS011;39682;51.490;7.310;2023-02-28T07:31:57;7.78;;;3.40;;
53765;SDS011;39682;51.490;7.310;2023-02-28T07:34:23;10.93;;;3.33;;
53765;SDS011;39682;51.490;7.310;2023-02-28T07:36:52;3.90;;;2.58;;
53765;SDS011;39682;51.490;7.310;2023-02-28T07:39:18;3.20;;;2.67;;
53765;SDS011;39682;51.490;7.310;2023-02-28T07:41:44;9.02;;;2.90;;
53765;SDS011;39682;51.490;7.310;2023-02-28T07:44:10;6.82;;;2.47;;
53765;SDS011;39682;51.490;7.310;2023-02-28T07:46:36;5.53;;;2.75;;
53765;SDS011;39682;51.490;7.310;2023-02-28T07:49:02;5.00;;;2.15;;
53765;SDS011;39682;51.490;7.310;2023-02-28T07:51:29;10.60;;;2.90;;
53765;SDS011;39682;51.490;7.310;2023-02-28T07:53:55;4.97;;;2.75;;
53765;SDS011;39682;51.490;7.310;2023-02-28T07:56:21;6.55;;;3.00;;
53765;SDS011;39682;51.490;7.310;2023-02-28T07:58:47;5.97;;;2.40;;
53765;SDS011;39682;51.490;7.310;2023-02-28T08:01:13;7.10;;;3.30;;
53765;SDS011;39682;51.490;7.310;2023-02-28T08:03:39;6.97;;;2.80;;
53765;SDS011;39682;51.490;7.310;2023-02-28T08:06:07;10.52;;;2.95;;
53765;SDS011;39682;51.490;7.310;2023-02-28T08:08:33;7.25;;;2.53;;
53765;SDS011;39682;51.490;7.310;2023-02-28T08:11:01;9.65;;;3.65;;
53765;SDS011;39682;51.490;7.310;2023-02-28T08:13:28;7.95;;;2.72;;
53765;SDS011;39682;51.490;7.310;2023-02-28T08:15:54;10.82;;;2.47;;
53765;SDS011;39682;51.490;7.310;2023-02-28T08:18:21;5.78;;;2.83;;
53765;SDS011;39682;51.490;7.310;2023-02-28T08:20:47;4.63;;;2.38;;
53765;SDS011;39682;51.490;7.310;2023-02-28T08:23:13;7.20;;;3.20;;
53765;SDS011;39682;51.490;7.310;2023-02-28T08:25:39;8.02;;;2.42;;
53765;SDS011;39682;51.490;7.310;2023-02-28T08:28:05;10.70;;;3.40;;
53765;SDS011;39682;51.490;7.310;2023-02-28T08:30:31;5.03;;;2.80;;
53765;SDS011;39682;51.490;7.310;2023-02-28T08:32:57;10.38;;;3.15;;
53765;SDS011;39682;51.490;7.310;2023-02-28T08:35:23;6.25;;;2.33;;
53765;SDS011;39682;51.490;7.310;2023-02-28T08:37:49;8.30;;;2.60;;
53765;SDS011;39682;51.490;7.310;2023-02-28T08:40:15;4.47;;;2.47;;
53765;SDS011;39682;51.490;7.310;2023-02-28T08:42:45;8.32;;;3.03;;
53765;SDS011;39682;51.490;7.310;2023-02-28T08:45:12;8.15;;;2.72;;
53765;SDS011;39682;51.490;7.310;2023-02-28T08:47:38;5.63;;;1.90;;
53765;SDS011;39682;51.490;7.310;2023-02-28T08:50:05;5.97;;;2.35;;
53765;SDS011;39682;51.490;7.310;2023-02-28T08:52:31;6.43;;;2.95;;
53765;SDS011;39682;51.490;7.310;2023-02-28T08:54:57;6.70;;;2.17;;
53765;SDS011;39682;51.490;7.310;2023-02-28T08:57:23;5.68;;;2.65;;
53765;SDS011;39682;51.490;7.310;2023-02-28T08:59:51;4.82;;;2.65;;
53765;SDS011;39682;51.490;7.310;2023-02-28T09:02:17;7.90;;;2.50;;
53765;SDS011;39682;51.490;7.310;2023-02-28T09:04:43;7.95;;;3.13;;
53765;SDS011;39682;51.490;7.310;2023-02-28T09:07:10;5.70;;;3.03;;
53765;SDS011;39682;51.490;7.310;2023-02-28T09:09:37;7.28;;;2.92;;
53765;SDS011;39682;51.490;7.310;2023-02-28T09:12:03;6.22;;;2.75;;
53765;SDS011;39682;51.490;7.310;2023-02-28T09:14:29;5.32;;;2.30;;
53765;SDS011;39682;51.490;7.310;2023-02-28T09:16:55;8.25;;;2.97;;
53765;SDS011;39682;51.490;7.310;2023-02-28T09:19:21;4.30;;;1.50;;
53765;SDS011;39682;51.490;7.310;2023-02-28T09:21:47;3.80;;;1.83;;
53765;SDS011;39682;51.490;7.310;2023-02-28T09:24:13;5.03;;;2.33;;
53765;SDS011;39682;51.490;7.310;2023-02-28T09:26:40;5.10;;;2.15;;
53765;SDS011;39682;51.490;7.310;2023-02-28T09:29:06;3.63;;;2.08;;
53765;SDS011;39682;51.490;7.310;2023-02-28T09:31:32;3.47;;;1.58;;
53765;SDS011;39682;51.490;7.310;2023-02-28T09:33:58;3.78;;;1.60;;
53765;SDS011;39682;51.490;7.310;2023-02-28T09:36:25;3.65;;;1.73;;
53765;SDS011;39682;51.490;7.310;2023-02-28T09:38:51;5.55;;;1.58;;
53765;SDS011;39682;51.490;7.310;2023-02-28T09:41:21;3.65;;;1.50;;
53765;SDS011;39682;51.490;7.310;2023-02-28T09:43:55;4.30;;;1.67;;
53765;SDS011;39682;51.490;7.310;2023-02-28T09:46:32;4.00;;;1.75;;
53765;SDS011;39682;51.490;7.310;2023-02-28T09:49:04;3.63;;;1.17;;
53765;SDS011;39682;51.490;7.310;2023-02-28T09:54:17;1.92;;;1.23;;
53765;SDS011;39682;51.490;7.310;2023-02-28T09:56:45;3.13;;;1.52;;
53765;SDS011;39682;51.490;7.310;2023-02-28T10:01:39;4.20;;;1.50;;
53765;SDS011;39682;51.490;7.310;2023-02-28T10:06:48;2.70;;;1.23;;
53765;SDS011;39682;51.490;7.310;2023-02-28T10:09:24;7.32;;;1.80;;
53765;SDS011;39682;51.490;7.310;2023-02-28T10:11:52;3.10;;;1.20;;
53765;SDS011;39682;51.490;7.310;2023-02-28T10:14:23;2.35;;;1.27;;
53765;SDS011;39682;51.490;7.310;2023-02-28T10:21:50;2.65;;;1.30;;
53765;SDS011;39682;51.490;7.310;2023-02-28T10:24:23;3.38;;;1.33;;
53765;SDS011;39682;51.490;7.310;2023-02-28T10:26:52;1.58;;;1.05;;
53765;SDS011;39682;51.490;7.310;2023-02-28T10:29:23;2.40;;;1.17;;
53765;SDS011;39682;51.490;7.310;2023-02-28T10:31:49;2.70;;;1.17;;
53765;SDS011;39682;51.490;7.310;2023-02-28T10:34:15;2.13;;;1.15;;
53765;SDS011;39682;51.490;7.310;2023-02-28T10:36:41;1.38;;;0.70;;
53765;SDS011;39682;51.490;7.310;2023-02-28T10:39:44;2.55;;;1.10;;
53765;SDS011;39682;51.490;7.310;2023-02-28T10:42:03;1.80;;;1.00;;
53765;SDS011;39682;51.490;7.310;2023-02-28T10:44:29;2.00;;;0.90;;
53765;SDS011;39682;51.490;7.310;2023-02-28T10:46:54;2.15;;;1.23;;
53765;SDS011;39682;51.490;7.310;2023-02-28T10:49:22;1.38;;;0.60;;
53765;SDS011;39682;51.490;7.310;2023-02-28T10:51:49;2.70;;;1.20;;
53765;SDS011;39682;51.490;7.310;2023-02-28T10:54:26;1.42;;;0.77;;
53765;SDS011;39682;51.490;7.310;2023-02-28T10:57:06;1.30;;;0.90;;
53765;SDS011;39682;51.490;7.310;2023-02-28T10:59:33;3.22;;;1.25;;
53765;SDS011;39682;51.490;7.310;2023-02-28T11:01:59;2.65;;;0.70;;
53765;SDS011;39682;51.490;7.310;2023-02-28T11:07:01;2.70;;;1.02;;
53765;SDS011;39682;51.490;7.310;2023-02-28T11:09:29;1.70;;;1.10;;
53765;SDS011;39682;51.490;7.310;2023-02-28T11:11:56;4.75;;;1.27;;
53765;SDS011;39682;51.490;7.310;2023-02-28T11:14:24;4.38;;;1.60;;
53765;SDS011;39682;51.490;7.310;2023-02-28T11:16:50;2.35;;;0.88;;
53765;SDS011;39682;51.490;7.310;2023-02-28T11:19:21;3.95;;;1.38;;
53765;SDS011;39682;51.490;7.310;2023-02-28T11:21:51;2.10;;;1.13;;
53765;SDS011;39682;51.490;7.310;2023-02-28T11:24:22;3.15;;;1.05;;
53765;SDS011;39682;51.490;7.310;2023-02-28T11:26:49;3.08;;;1.17;;
53765;SDS011;39682;51.490;7.310;2023-02-28T11:29:25;2.88;;;1.20;;
53765;SDS011;39682;51.490;7.310;2023-02-28T11:32:01;3.70;;;1.40;;
53765;SDS011;39682;51.490;7.310;2023-02-28T11:34:27;3.28;;;1.33;;
53765;SDS011;39682;51.490;7.310;2023-02-28T11:36:57;4.60;;;2.30;;
53765;SDS011;39682;51.490;7.310;2023-02-28T11:39:24;2.45;;;1.10;;
53765;SDS011;39682;51.490;7.310;2023-02-28T11:44:20;1.30;;;0.85;;
53765;SDS011;39682;51.490;7.310;2023-02-28T11:52:06;1.40;;;1.05;;
53765;SDS011;39682;51.490;7.310;2023-02-28T11:57:17;2.78;;;1.50;;
53765;SDS011;39682;51.490;7.310;2023-02-28T12:02:19;4.05;;;1.80;;
53765;SDS011;39682;51.490;7.310;2023-02-28T12:04:52;2.22;;;1.40;;
53765;SDS011;39682;51.490;7.310;2023-02-28T12:07:31;3.33;;;1.50;;
53765;SDS011;39682;51.490;7.310;2023-02-28T12:20:53;3.70;;;1.25;;
53765;SDS011;39682;51.490;7.310;2023-02-28T12:28:17;2.33;;;1.45;;
53765;SDS011;39682;51.490;7.310;2023-02-28T12:31:33;2.38;;;1.48;;
53765;SDS011;39682;51.490;7.310;2023-02-28T12:33:34;3.15;;;1.40;;
53765;SDS011;39682;51.490;7.310;2023-02-28T12:36:02;2.33;;;1.27;;
53765;SDS011;39682;51.490;7.310;2023-02-28T12:38:31;4.28;;;1.85;;
53765;SDS011;39682;51.490;7.310;2023-02-28T12:41:00;3.47;;;2.22;;
53765;SDS011;39682;51.490;7.310;2023-02-28T12:43:28;2.22;;;1.45;;
53765;SDS011;39682;51.490;7.310;2023-02-28T12:45:59;4.07;;;1.50;;
53765;SDS011;39682;51.490;7.310;2023-02-28T12:48:29;3.38;;;1.40;;
53765;SDS011;39682;51.490;7.310;2023-02-28T12:50:57;1.67;;;1.30;;
53765;SDS011;39682;51.490;7.310;2023-02-28T12:53:25;2.63;;;1.70;;
53765;SDS011;39682;51.490;7.310;2023-02-28T13:10:53;2.90;;;1.45;;
53765;SDS011;39682;51.490;7.310;2023-02-28T13:13:21;2.38;;;1.58;;
53765;SDS011;39682;51.490;7.310;2023-02-28T13:15:58;2.15;;;1.35;;
53765;SDS011;39682;51.490;7.310;2023-02-28T13:18:28;2.38;;;1.75;;
53765;SDS011;39682;51.490;7.310;2023-02-28T13:20:55;1.80;;;1.02;;
53765;SDS011;39682;51.490;7.310;2023-02-28T13:26:05;1.50;;;1.40;;
53765;SDS011;39682;51.490;7.310;2023-02-28T13:31:20;2.33;;;1.50;;
53765;SDS011;39682;51.490;7.310;2023-02-28T13:38:43;3.40;;;1.58;;
53765;SDS011;39682;51.490;7.310;2023-02-28T13:44:04;2.83;;;1.92;;
53765;SDS011;39682;51.490;7.310;2023-02-28T13:46:31;3.17;;;2.05;;
53765;SDS011;39682;51.490;7.310;2023-02-28T13:51:44;3.83;;;2.10;;
53765;SDS011;39682;51.490;7.310;2023-02-28T13:56:52;4.93;;;1.73;;
53765;SDS011;39682;51.490;7.310;2023-02-28T14:07:08;3.60;;;1.77;;
53765;SDS011;39682;51.490;7.310;2023-02-28T14:14:53;3.57;;;1.53;;
53765;SDS011;39682;51.490;7.310;2023-02-28T14:17:20;4.35;;;1.80;;
53765;SDS011;39682;51.490;7.310;2023-02-28T14:19:46;3.42;;;1.80;;
53765;SDS011;39682;51.490;7.310;2023-02-28T14:25:04;3.63;;;1.80;;
53765;SDS011;39682;51.490;7.310;2023-02-28T14:32:51;2.88;;;1.80;;
53765;SDS011;39682;51.490;7.310;2023-02-28T14:35:22;5.13;;;1.92;;
53765;SDS011;39682;51.490;7.310;2023-02-28T14:37:53;3.10;;;1.63;;
53765;SDS011;39682;51.490;7.310;2023-02-28T14:40:22;3.45;;;2.15;;
53765;SDS011;39682;51.490;7.310;2023-02-28T14:42:57;2.80;;;1.60;;
53765;SDS011;39682;51.490;7.310;2023-02-28T14:45:24;2.67;;;1.80;;
53765;SDS011;39682;51.490;7.310;2023-02-28T14:47:52;3.60;;;1.73;;
53765;SDS011;39682;51.490;7.310;2023-02-28T14:50:20;3.20;;;1.65;;
53765;SDS011;39682;51.490;7.310;2023-02-28T14:52:46;3.85;;;1.40;;
53765;SDS011;39682;51.490;7.310;2023-02-28T14:55:14;3.67;;;1.40;;
53765;SDS011;39682;51.490;7.310;2023-02-28T14:57:41;2.55;;;1.42;;
53765;SDS011;39682;51.490;7.310;2023-02-28T15:02:38;2.60;;;1.48;;
53765;SDS011;39682;51.490;7.310;2023-02-28T15:07:46;2.88;;;1.50;;
53765;SDS011;39682;51.490;7.310;2023-02-28T15:10:23;2.15;;;1.95;;
53765;SDS011;39682;51.490;7.310;2023-02-28T15:12:56;3.47;;;1.70;;
53765;SDS011;39682;51.490;7.310;2023-02-28T15:15:35;3.13;;;1.30;;
53765;SDS011;39682;51.490;7.310;2023-02-28T15:18:06;4.40;;;1.90;;
53765;SDS011;39682;51.490;7.310;2023-02-28T15:20:33;2.20;;;1.70;;
53765;SDS011;39682;51.490;7.310;2023-02-28T15:26:03;4.75;;;1.50;;
53765;SDS011;39682;51.490;7.310;2023-02-28T15:28:29;3.72;;;2.60;;
53765;SDS011;39682;51.490;7.310;2023-02-28T15:30:56;4.47;;;1.77;;
53765;SDS011;39682;51.490;7.310;2023-02-28T15:33:27;3.13;;;1.50;;
53765;SDS011;39682;51.490;7.310;2023-02-28T15:36:03;2.80;;;1.70;;
53765;SDS011;39682;51.490;7.310;2023-02-28T15:41:36;3.88;;;1.67;;
53765;SDS011;39682;51.490;7.310;2023-02-28T15:47:20;3.53;;;1.60;;
53765;SDS011;39682;51.490;7.310;2023-02-28T15:52:17;4.18;;;2.45;;
53765;SDS011;39682;51.490;7.310;2023-02-28T15:54:44;6.03;;;2.00;;
53765;SDS011;39682;51.490;7.310;2023-02-28T15:57:13;4.03;;;2.17;;
53765;SDS011;39682;51.490;7.310;2023-02-28T15:59:42;14.40;;;1.88;;
53765;SDS011;39682;51.490;7.310;2023-02-28T16:02:15;2.65;;;1.95;;
53765;SDS011;39682;51.490;7.310;2023-02-28T16:07:21;5.68;;;2.78;;
53765;SDS011;39682;51.490;7.310;2023-02-28T16:09:47;3.72;;;2.38;;
53765;SDS011;39682;51.490;7.310;2023-02-28T16:12:13;3.50;;;2.05;;
53765;SDS011;39682;51.490;7.310;2023-02-28T16:14:39;4.47;;;2.00;;
53765;SDS011;39682;51.490;7.310;2023-02-28T16:17:27;4.07;;;2.20;;
53765;SDS011;39682;51.490;7.310;2023-02-28T16:19:52;2.92;;;1.60;;
53765;SDS011;39682;51.490;7.310;2023-02-28T16:22:18;4.18;;;1.88;;
53765;SDS011;39682;51.490;7.310;2023-02-28T16:24:44;4.40;;;2.47;;
53765;SDS011;39682;51.490;7.310;2023-02-28T16:27:20;1.83;;;1.52;;
53765;SDS011;39682;51.490;7.310;2023-02-28T16:29:47;2.85;;;1.80;;
53765;SDS011;39682;51.490;7.310;2023-02-28T16:32:14;3.03;;;1.70;;
53765;SDS011;39682;51.490;7.310;2023-02-28T16:34:40;2.33;;;1.48;;
53765;SDS011;39682;51.490;7.310;2023-02-28T16:37:16;5.18;;;2.03;;
53765;SDS011;39682;51.490;7.310;2023-02-28T16:39:43;5.68;;;2.05;;
53765;SDS011;39682;51.490;7.310;2023-02-28T16:42:11;3.55;;;1.98;;
53765;SDS011;39682;51.490;7.310;2023-02-28T16:44:39;5.40;;;2.00;;
53765;SDS011;39682;51.490;7.310;2023-02-28T16:47:05;2.42;;;1.35;;
53765;SDS011;39682;51.490;7.310;2023-02-28T16:49:31;3.25;;;1.65;;
53765;SDS011;39682;51.490;7.310;2023-02-28T16:51:57;3.28;;;1.58;;
53765;SDS011;39682;51.490;7.310;2023-02-28T16:54:23;3.03;;;1.80;;
53765;SDS011;39682;51.490;7.310;2023-02-28T16:56:49;4.35;;;1.92;;
53765;SDS011;39682;51.490;7.310;2023-02-28T16:59:18;2.90;;;1.77;;
53765;SDS011;39682;51.490;7.310;2023-02-28T17:01:44;5.25;;;1.98;;
53765;SDS011;39682;51.490;7.310;2023-02-28T17:04:11;7.22;;;4.25;;
53765;SDS011;39682;51.490;7.310;2023-02-28T17:06:37;3.80;;;2.65;;
53765;SDS011;39682;51.490;7.310;2023-02-28T17:09:03;5.85;;;2.13;;
53765;SDS011;39682;51.490;7.310;2023-02-28T17:11:29;5.68;;;2.20;;
53765;SDS011;39682;51.490;7.310;2023-02-28T17:13:55;4.38;;;2.25;;
53765;SDS011;39682;51.490;7.310;2023-02-28T17:18:51;4.30;;;1.77;;
53765;SDS011;39682;51.490;7.310;2023-02-28T17:21:17;4.97;;;2.75;;
53765;SDS011;39682;51.490;7.310;2023-02-28T17:23:43;3.85;;;1.90;;
53765;SDS011;39682;51.490;7.310;2023-02-28T17:26:13;3.75;;;1.80;;